createdAt,value
2019-03-06T00:01:25.400Z,1.60
2019-03-06T00:04:13.021Z,1.67
2019-03-06T00:06:41.406Z,1.53
2019-03-06T00:09:49.747Z,1.80
2019-03-06T00:12:18.138Z,1.73
2019-03-06T00:14:46.529Z,1.93
2019-03-06T00:17:14.949Z,2.20
2019-03-06T00:19:43.342Z,2.10
2019-03-06T00:22:11.738Z,1.90
2019-03-06T00:27:33.418Z,1.90
2019-03-06T00:30:01.864Z,1.80
2019-03-06T00:32:49.511Z,2.20
2019-03-06T00:35:57.863Z,1.77
2019-03-06T00:46:23.208Z,2.20
2019-03-06T00:51:26.086Z,2.50
2019-03-06T00:53:54.522Z,2.47
2019-03-06T00:56:24.635Z,2.27
2019-03-06T00:58:53.031Z,2.50
2019-03-06T01:03:55.275Z,2.40
2019-03-06T01:08:57.274Z,2.50
2019-03-06T01:11:25.700Z,2.50
2019-03-06T01:13:54.168Z,2.53
2019-03-06T01:16:22.622Z,3.10
2019-03-06T01:18:51.059Z,2.97
2019-03-06T01:21:19.447Z,2.90
2019-03-06T01:23:47.847Z,2.70
2019-03-06T01:26:16.265Z,2.90
2019-03-06T01:28:44.648Z,3.23
2019-03-06T01:31:32.290Z,3.17
2019-03-06T01:34:19.812Z,3.40
2019-03-06T01:37:07.353Z,3.20
2019-03-06T01:42:43.965Z,3.53
2019-03-06T01:48:20.423Z,3.30
2019-03-06T01:50:48.809Z,3.20
2019-03-06T01:53:17.215Z,4.00
2019-03-06T01:55:45.621Z,3.50
2019-03-06T01:58:14.014Z,3.50
2019-03-06T02:01:22.359Z,3.80
2019-03-06T02:04:10.024Z,3.33
2019-03-06T02:06:38.427Z,3.50
2019-03-06T02:12:20.988Z,3.70
2019-03-06T02:15:08.706Z,3.60
2019-03-06T02:20:52.681Z,3.70
2019-03-06T02:28:50.087Z,3.93
2019-03-06T02:33:52.512Z,4.60
2019-03-06T02:38:55.302Z,4.30
2019-03-06T02:41:23.742Z,4.37
2019-03-06T02:43:52.132Z,4.27
2019-03-06T02:46:20.524Z,4.60
2019-03-06T02:48:48.940Z,4.90
2019-03-06T02:51:17.340Z,4.63
2019-03-06T02:53:47.458Z,4.00
2019-03-06T02:56:15.864Z,4.43
2019-03-06T03:01:52.613Z,4.00
2019-03-06T03:04:40.067Z,3.80
2019-03-06T03:09:44.027Z,4.00
2019-03-06T03:12:12.414Z,5.20
2019-03-06T03:14:40.813Z,4.37
2019-03-06T03:17:28.510Z,5.70
2019-03-06T03:19:56.909Z,4.50
2019-03-06T03:22:25.371Z,3.50
2019-03-06T03:25:13.065Z,3.60
2019-03-06T03:27:41.639Z,3.90
2019-03-06T03:30:49.976Z,3.83
2019-03-06T03:33:58.310Z,5.20
2019-03-06T03:39:00.966Z,3.97
2019-03-06T03:41:29.422Z,3.90
2019-03-06T03:47:06.002Z,3.83
2019-03-06T03:49:53.523Z,3.90
2019-03-06T03:54:55.942Z,3.80
2019-03-06T03:58:04.316Z,3.10
2019-03-06T04:00:52.027Z,3.13
2019-03-06T04:03:20.450Z,3.00
2019-03-06T04:05:48.861Z,3.40
2019-03-06T04:08:36.629Z,3.03
2019-03-06T04:18:22.267Z,2.70
2019-03-06T04:20:50.667Z,2.47
2019-03-06T04:23:20.785Z,2.57
2019-03-06T04:25:49.197Z,2.40
2019-03-06T04:31:06.685Z,2.60
2019-03-06T04:33:35.086Z,2.50
2019-03-06T04:36:03.489Z,2.70
2019-03-06T04:38:31.905Z,2.53
2019-03-06T04:41:00.289Z,3.10
2019-03-06T04:43:28.682Z,3.07
2019-03-06T04:46:18.226Z,3.40
2019-03-06T04:48:46.619Z,3.37
2019-03-06T04:51:15.004Z,3.20
2019-03-06T04:56:17.786Z,3.60
2019-03-06T04:59:05.397Z,3.90
2019-03-06T05:01:33.804Z,3.70
2019-03-06T05:04:03.998Z,3.60
2019-03-06T05:09:46.008Z,5.13
2019-03-06T05:12:14.590Z,4.07
2019-03-06T05:14:42.980Z,3.60
2019-03-06T05:20:00.470Z,2.40
2019-03-06T05:22:28.871Z,2.47
2019-03-06T05:27:46.354Z,2.53
2019-03-06T05:30:54.666Z,2.53
2019-03-06T05:36:37.051Z,2.60
2019-03-06T05:39:24.825Z,2.43
2019-03-06T05:41:53.226Z,2.50
2019-03-06T05:44:21.624Z,2.60
2019-03-06T05:47:02.060Z,2.80
2019-03-06T05:49:30.454Z,2.90
2019-03-06T05:51:58.862Z,2.90
2019-03-06T05:57:01.667Z,4.20
2019-03-06T05:59:30.114Z,3.80
2019-03-06T06:01:58.513Z,3.90
2019-03-06T06:04:26.911Z,4.40
2019-03-06T06:06:55.323Z,4.00
2019-03-06T06:09:25.437Z,3.60
2019-03-06T06:11:53.837Z,4.47
2019-03-06T06:14:22.261Z,3.40
2019-03-06T06:16:50.651Z,2.90
2019-03-06T06:19:19.050Z,2.60
2019-03-06T06:22:06.613Z,4.20
2019-03-06T06:24:35.005Z,3.33
2019-03-06T06:27:03.396Z,2.97
2019-03-06T06:29:31.811Z,2.43
2019-03-06T06:32:01.925Z,2.40
2019-03-06T06:34:30.321Z,2.60
2019-03-06T06:39:33.160Z,2.23
2019-03-06T06:44:35.497Z,2.13
2019-03-06T06:47:03.914Z,2.20
2019-03-06T06:49:32.307Z,2.63
2019-03-06T06:52:40.661Z,2.93
2019-03-06T06:55:49.031Z,3.80
2019-03-06T06:58:57.461Z,3.97
2019-03-06T07:02:05.776Z,4.27
2019-03-06T07:05:31.952Z,4.70
2019-03-06T07:08:19.753Z,5.00
2019-03-06T07:16:17.805Z,5.10
2019-03-06T07:19:05.332Z,5.30
2019-03-06T07:24:28.479Z,5.63
2019-03-06T07:27:35.341Z,5.70
2019-03-06T07:30:43.767Z,6.00
2019-03-06T07:36:39.707Z,7.50
2019-03-06T07:39:48.048Z,4.97
2019-03-06T07:45:50.240Z,4.20
2019-03-06T07:48:37.764Z,4.33
2019-03-06T07:54:20.828Z,3.27
2019-03-06T07:57:08.351Z,3.20
2019-03-06T08:02:49.621Z,3.53
2019-03-06T08:05:18.115Z,3.60
2019-03-06T08:07:46.527Z,4.73
2019-03-06T08:10:55.182Z,4.00
2019-03-06T08:21:49.800Z,3.97
2019-03-06T08:24:56.653Z,2.90
2019-03-06T08:30:19.650Z,2.90
2019-03-06T08:32:48.051Z,3.67
2019-03-06T08:35:16.449Z,3.00
2019-03-06T08:38:04.315Z,3.13
2019-03-06T08:46:13.744Z,2.47
2019-03-06T08:49:01.321Z,2.60
2019-03-06T08:51:48.921Z,2.10
2019-03-06T08:57:15.685Z,2.40
2019-03-06T09:00:03.356Z,4.27
2019-03-06T09:02:51.225Z,3.47
2019-03-06T09:08:48.735Z,3.60
2019-03-06T09:11:36.375Z,3.67
2019-03-06T09:14:44.731Z,3.27
2019-03-06T09:25:35.483Z,2.60
2019-03-06T09:31:31.521Z,2.80
2019-03-06T09:37:28.140Z,2.90
2019-03-06T09:43:05.904Z,2.20
2019-03-06T09:46:14.227Z,2.83
2019-03-06T09:49:10.933Z,2.37
2019-03-06T09:51:51.545Z,2.00
2019-03-06T09:54:39.252Z,2.10
2019-03-06T09:57:26.864Z,2.07
2019-03-06T10:00:14.779Z,1.80
2019-03-06T10:03:02.407Z,1.90
2019-03-06T10:05:50.139Z,4.27
2019-03-06T10:21:59.164Z,3.73
2019-03-06T10:24:28.906Z,2.93
2019-03-06T10:27:37.443Z,13.90
2019-03-06T10:30:45.762Z,3.10
2019-03-06T10:33:14.192Z,3.10
2019-03-06T10:35:42.698Z,2.83
2019-03-06T10:38:30.445Z,2.60
2019-03-06T10:40:58.878Z,2.20
2019-03-06T10:43:27.277Z,1.90
2019-03-06T10:46:14.908Z,1.73
2019-03-06T10:48:43.309Z,2.10
2019-03-06T10:51:13.505Z,2.50
2019-03-06T10:53:43.655Z,2.00
2019-03-06T10:59:20.349Z,1.77
2019-03-06T11:01:48.921Z,2.77
2019-03-06T11:07:52.512Z,2.07
2019-03-06T11:10:40.107Z,2.30
2019-03-06T11:16:01.867Z,2.17
2019-03-06T11:18:30.339Z,1.80
2019-03-06T11:20:58.743Z,1.57
2019-03-06T11:23:27.133Z,1.70
2019-03-06T11:28:49.351Z,1.60
2019-03-06T11:33:53.933Z,1.27
2019-03-06T11:36:41.678Z,1.40
2019-03-06T11:39:49.996Z,1.20
2019-03-06T11:42:18.420Z,1.20
2019-03-06T11:45:06.009Z,1.10
2019-03-06T11:47:34.438Z,1.10
2019-03-06T11:50:21.962Z,1.30
2019-03-06T11:53:09.706Z,1.20
2019-03-06T11:55:57.420Z,1.70
2019-03-06T12:03:33.724Z,1.00
2019-03-06T12:06:21.465Z,1.53
2019-03-06T12:09:09.060Z,1.30
2019-03-06T12:11:37.515Z,1.00
2019-03-06T12:14:45.837Z,0.87
2019-03-06T12:23:45.524Z,1.30
2019-03-06T12:26:33.104Z,1.30
2019-03-06T12:29:01.525Z,1.50
2019-03-06T12:31:29.921Z,1.07
2019-03-06T12:33:58.318Z,1.50
2019-03-06T12:36:45.866Z,1.30
2019-03-06T12:39:54.186Z,1.47
2019-03-06T12:44:58.093Z,1.33
2019-03-06T12:51:01.046Z,1.43
2019-03-06T12:53:41.497Z,1.70
2019-03-06T12:56:09.921Z,1.90
2019-03-06T13:01:31.985Z,2.07
2019-03-06T13:04:02.101Z,2.00
2019-03-06T13:06:49.722Z,1.70
2019-03-06T13:09:58.035Z,1.50
2019-03-06T13:12:26.525Z,1.60
2019-03-06T13:14:56.581Z,1.63
2019-03-06T13:18:04.919Z,1.60
2019-03-06T13:26:58.069Z,1.40
2019-03-06T13:29:27.035Z,1.83
2019-03-06T13:31:55.415Z,1.70
2019-03-06T13:40:18.564Z,1.43
2019-03-06T13:42:43.272Z,1.73
2019-03-06T13:45:51.769Z,1.43
2019-03-06T13:48:39.349Z,1.83
2019-03-06T13:51:47.688Z,1.53
2019-03-06T13:54:35.278Z,1.63
2019-03-06T13:59:37.503Z,1.50
2019-03-06T14:02:05.961Z,1.50
2019-03-06T14:04:53.492Z,2.00
2019-03-06T14:07:21.909Z,1.63
2019-03-06T14:09:50.315Z,1.60
2019-03-06T14:12:18.713Z,1.50
2019-03-06T14:17:21.184Z,1.63
2019-03-06T14:20:08.793Z,1.60
2019-03-06T14:22:44.441Z,1.57
2019-03-06T14:25:52.961Z,1.60
2019-03-06T14:28:21.360Z,1.90
2019-03-06T14:33:42.766Z,1.73
2019-03-06T14:36:11.168Z,1.80
2019-03-06T14:39:19.511Z,1.60
2019-03-06T14:42:07.304Z,1.40
2019-03-06T14:45:15.635Z,1.50
2019-03-06T14:53:25.921Z,1.67
2019-03-06T14:56:34.598Z,1.50
2019-03-06T14:59:02.994Z,2.00
2019-03-06T15:01:31.402Z,1.80
2019-03-06T15:03:59.824Z,1.67
2019-03-06T15:06:28.290Z,1.73
2019-03-06T15:08:56.701Z,1.83
2019-03-06T15:14:01.554Z,1.57
2019-03-06T15:19:04.441Z,1.60
2019-03-06T15:24:06.875Z,1.60
2019-03-06T15:29:09.851Z,1.20
2019-03-06T15:37:06.670Z,1.27
2019-03-06T15:40:15.144Z,0.93
2019-03-06T15:43:02.738Z,1.30
2019-03-06T15:51:38.093Z,1.40
2019-03-06T15:57:14.575Z,1.30
2019-03-06T16:00:02.309Z,1.53
2019-03-06T16:02:50.046Z,1.60
2019-03-06T16:05:58.372Z,1.63
2019-03-06T16:09:08.446Z,2.00
2019-03-06T16:11:36.842Z,4.50
2019-03-06T16:14:45.239Z,6.80
2019-03-06T16:17:13.643Z,4.90
2019-03-06T16:19:42.044Z,3.00
2019-03-06T16:25:46.390Z,9.27
2019-03-06T16:28:54.712Z,4.40
2019-03-06T16:33:57.528Z,4.40
2019-03-06T16:44:34.316Z,2.93
2019-03-06T16:49:36.559Z,10.67
2019-03-06T16:54:58.096Z,10.03
2019-03-06T17:00:00.361Z,3.60
2019-03-06T17:02:30.328Z,4.00
2019-03-06T17:04:58.726Z,4.53
2019-03-06T17:07:46.477Z,4.90
2019-03-06T17:10:56.530Z,5.47
2019-03-06T17:14:04.972Z,6.37
2019-03-06T17:16:33.451Z,18.97
2019-03-06T17:19:21.167Z,4.80
2019-03-06T17:24:57.727Z,19.23
2019-03-06T17:31:16.487Z,6.23
2019-03-06T17:33:46.146Z,33.20
2019-03-06T17:36:14.547Z,42.80
2019-03-06T17:38:43.040Z,14.83
2019-03-06T17:41:11.439Z,10.73
2019-03-06T17:43:39.845Z,13.40
2019-03-06T17:48:42.043Z,7.77
2019-03-06T17:51:10.523Z,6.00
2019-03-06T17:53:58.279Z,10.40
2019-03-06T17:56:26.809Z,7.10
2019-03-06T17:59:35.129Z,6.40
2019-03-06T18:02:22.931Z,7.23
2019-03-06T18:10:33.527Z,10.33
2019-03-06T18:13:01.967Z,12.30
2019-03-06T18:15:30.514Z,11.40
2019-03-06T18:17:58.920Z,13.47
2019-03-06T18:23:20.519Z,13.07
2019-03-06T18:25:50.671Z,10.83
2019-03-06T18:28:38.395Z,10.13
2019-03-06T18:31:06.827Z,12.37
2019-03-06T18:33:35.252Z,6.33
2019-03-06T18:36:43.681Z,7.57
2019-03-06T18:40:06.148Z,9.27
2019-03-06T18:44:56.527Z,5.87
2019-03-06T18:47:25.024Z,6.70
2019-03-06T18:49:55.164Z,5.97
2019-03-06T18:52:23.565Z,7.50
2019-03-06T18:54:52.002Z,6.27
2019-03-06T18:57:20.400Z,5.90
2019-03-06T18:59:48.810Z,16.50
2019-03-06T19:02:17.340Z,6.93
2019-03-06T19:04:45.760Z,11.13
2019-03-06T19:07:14.156Z,6.90
2019-03-06T19:09:42.588Z,5.77
2019-03-06T19:12:10.984Z,5.63
2019-03-06T19:14:39.389Z,4.80
2019-03-06T19:17:07.828Z,4.77
2019-03-06T19:19:55.549Z,5.37
2019-03-06T19:22:23.991Z,5.97
2019-03-06T19:24:52.389Z,5.57
2019-03-06T19:27:20.789Z,5.23
2019-03-06T19:32:23.201Z,5.80
2019-03-06T19:40:39.262Z,6.07
2019-03-06T19:43:26.990Z,5.57
2019-03-06T19:48:29.337Z,4.90
2019-03-06T19:53:31.771Z,6.33
2019-03-06T19:58:53.458Z,7.43
2019-03-06T20:03:55.848Z,3.17
2019-03-06T20:06:27.260Z,3.20
2019-03-06T20:09:13.706Z,3.90
2019-03-06T20:14:35.870Z,3.43
2019-03-06T20:19:37.862Z,3.47
2019-03-06T20:22:25.601Z,3.30
2019-03-06T20:24:53.999Z,3.40
2019-03-06T20:27:22.396Z,3.57
2019-03-06T20:29:52.609Z,3.40
2019-03-06T20:32:21.010Z,3.87
2019-03-06T20:34:49.416Z,4.10
2019-03-06T20:39:51.616Z,3.77
2019-03-06T20:42:20.025Z,3.70
2019-03-06T20:47:24.374Z,3.60
2019-03-06T20:52:27.285Z,3.20
2019-03-06T20:54:55.712Z,3.97
2019-03-06T20:57:24.113Z,3.70
2019-03-06T20:59:54.240Z,3.40
2019-03-06T21:04:56.933Z,2.77
2019-03-06T21:07:25.358Z,2.87
2019-03-06T21:09:53.745Z,2.80
2019-03-06T21:12:22.149Z,2.80
2019-03-06T21:14:50.617Z,2.90
2019-03-06T21:17:19.022Z,2.77
2019-03-06T21:19:49.148Z,3.40
2019-03-06T21:24:51.518Z,2.60
2019-03-06T21:27:19.939Z,2.53
2019-03-06T21:29:48.339Z,2.63
2019-03-06T21:32:16.754Z,3.17
2019-03-06T21:34:46.894Z,2.83
2019-03-06T21:37:34.606Z,3.00
2019-03-06T21:40:22.230Z,2.80
2019-03-06T21:42:50.827Z,3.00
2019-03-06T21:45:19.202Z,2.70
2019-03-06T21:47:47.715Z,2.50
2019-03-06T21:50:37.549Z,2.97
2019-03-06T21:53:24.888Z,2.90
2019-03-06T21:55:53.361Z,3.33
2019-03-06T21:58:21.768Z,4.33
2019-03-06T22:00:50.186Z,3.00
2019-03-06T22:03:18.619Z,3.17
2019-03-06T22:05:48.739Z,3.00
2019-03-06T22:08:17.159Z,3.40
2019-03-06T22:10:45.552Z,3.07
2019-03-06T22:13:13.955Z,3.60
2019-03-06T22:16:01.585Z,3.33
2019-03-06T22:18:29.979Z,3.13
2019-03-06T22:20:58.378Z,3.07
2019-03-06T22:23:26.810Z,2.63
2019-03-06T22:26:14.466Z,2.77
2019-03-06T22:28:44.607Z,2.57
2019-03-06T22:31:13.013Z,2.50
2019-03-06T22:33:41.430Z,2.30
2019-03-06T22:38:43.436Z,2.40
2019-03-06T22:41:11.857Z,2.53
2019-03-06T22:43:41.990Z,2.60
2019-03-06T22:46:10.395Z,2.37
2019-03-06T22:48:38.857Z,2.43
2019-03-06T22:51:07.255Z,2.13
2019-03-06T22:53:35.648Z,3.13
2019-03-06T22:56:23.312Z,3.50
2019-03-06T22:58:51.712Z,4.10
2019-03-06T23:02:00.097Z,4.77
2019-03-06T23:04:28.494Z,4.30
2019-03-06T23:06:56.908Z,3.20
2019-03-06T23:11:59.309Z,2.17
2019-03-06T23:14:27.733Z,3.43
2019-03-06T23:16:56.159Z,2.67
2019-03-06T23:19:24.559Z,2.57
2019-03-06T23:27:21.845Z,3.03
2019-03-06T23:29:50.241Z,2.77
2019-03-06T23:32:18.673Z,1.87
2019-03-06T23:34:47.078Z,2.00
2019-03-06T23:37:15.481Z,1.67
2019-03-06T23:42:17.702Z,1.70
2019-03-06T23:44:48.834Z,1.80
2019-03-06T23:47:17.255Z,1.90
2019-03-06T23:49:45.677Z,1.60
2019-03-06T23:55:44.808Z,1.90
2019-03-06T23:58:13.207Z,1.60
